createdAt,value
2023-04-21T00:00:37.681Z,43
2023-04-21T00:01:44.476Z,43
2023-04-21T00:02:51.436Z,46
2023-04-21T00:03:58.277Z,44
2023-04-21T00:05:04.951Z,44
2023-04-21T00:06:14.392Z,49
2023-04-21T00:07:21.168Z,44
2023-04-21T00:08:27.923Z,42
2023-04-21T00:09:34.779Z,45
2023-04-21T00:10:41.596Z,47
2023-04-21T00:11:48.398Z,43
2023-04-21T00:12:55.296Z,42
2023-04-21T00:14:02.056Z,43
2023-04-21T00:15:08.919Z,44
2023-04-21T00:16:15.727Z,44
2023-04-21T00:17:22.524Z,44
2023-04-21T00:18:29.268Z,42
2023-04-21T00:19:36.137Z,39
2023-04-21T00:20:42.935Z,37
2023-04-21T00:21:49.844Z,36
2023-04-21T00:22:56.675Z,38
2023-04-21T00:24:03.470Z,33
2023-04-21T00:25:10.521Z,33
2023-04-21T00:26:17.407Z,34
2023-04-21T00:27:24.246Z,34
2023-04-21T00:28:31.058Z,34
2023-04-21T00:29:37.946Z,34
2023-04-21T00:30:44.791Z,34
2023-04-21T00:31:51.672Z,34
2023-04-21T00:32:58.523Z,32
2023-04-21T00:34:05.343Z,32
2023-04-21T00:35:12.304Z,32
2023-04-21T00:36:19.161Z,30
2023-04-21T00:37:26.053Z,30
2023-04-21T00:38:32.963Z,30
2023-04-21T00:39:39.723Z,28
2023-04-21T00:40:46.576Z,32
2023-04-21T00:41:53.341Z,30
2023-04-21T00:43:00.282Z,31
2023-04-21T00:44:10.307Z,31
2023-04-21T00:45:17.042Z,31
2023-04-21T00:46:23.918Z,33
2023-04-21T00:47:30.699Z,31
2023-04-21T00:48:37.701Z,33
2023-04-21T00:49:44.531Z,31
2023-04-21T00:50:51.358Z,30
2023-04-21T00:51:58.183Z,32
2023-04-21T00:53:05.066Z,30
2023-04-21T00:54:11.859Z,31
2023-04-21T00:55:18.619Z,33
2023-04-21T00:56:25.481Z,32
2023-04-21T00:57:32.315Z,32
2023-04-21T00:58:39.100Z,31
2023-04-21T00:59:46.123Z,33
2023-04-21T01:00:52.741Z,30
2023-04-21T01:01:59.520Z,30
2023-04-21T01:03:06.579Z,31
2023-04-21T01:04:13.159Z,32
2023-04-21T01:05:19.924Z,30
2023-04-21T01:06:26.753Z,32
2023-04-21T01:07:33.642Z,33
2023-04-21T01:08:40.417Z,32
2023-04-21T01:09:47.267Z,32
2023-04-21T01:10:54.111Z,32
2023-04-21T01:12:00.902Z,32
2023-04-21T01:13:07.889Z,32
2023-04-21T01:14:14.721Z,33
2023-04-21T01:15:21.560Z,32
2023-04-21T01:16:28.388Z,31
2023-04-21T01:17:35.259Z,31
2023-04-21T01:18:42.113Z,33
2023-04-21T01:19:48.925Z,33
2023-04-21T01:20:55.766Z,33
2023-04-21T01:22:02.582Z,32
2023-04-21T01:23:09.490Z,31
2023-04-21T01:24:16.262Z,32
2023-04-21T01:25:23.090Z,33
2023-04-21T01:26:30.126Z,35
2023-04-21T01:27:37.019Z,33
2023-04-21T01:28:43.790Z,33
2023-04-21T01:29:50.639Z,32
2023-04-21T01:30:57.580Z,34
2023-04-21T01:32:04.491Z,31
2023-04-21T01:33:11.368Z,30
2023-04-21T01:34:18.148Z,29
2023-04-21T01:35:25.017Z,30
2023-04-21T01:36:31.935Z,29
2023-04-21T01:37:38.835Z,31
2023-04-21T01:38:45.644Z,30
2023-04-21T01:39:52.515Z,30
2023-04-21T01:40:59.414Z,29
2023-04-21T01:42:06.273Z,30
2023-04-21T01:43:13.140Z,29
2023-04-21T01:44:20.088Z,31
2023-04-21T01:45:26.975Z,30
2023-04-21T01:46:33.946Z,30
2023-04-21T01:47:40.706Z,27
2023-04-21T01:48:47.545Z,28
2023-04-21T01:49:54.313Z,31
2023-04-21T01:51:01.114Z,31
2023-04-21T01:52:07.946Z,31
2023-04-21T01:53:14.773Z,30
2023-04-21T01:54:21.597Z,32
2023-04-21T01:55:28.462Z,33
2023-04-21T01:56:35.275Z,34
2023-04-21T01:57:42.086Z,34
2023-04-21T01:58:48.978Z,34
2023-04-21T01:59:55.862Z,33
2023-04-21T02:01:02.779Z,30
2023-04-21T02:02:09.669Z,29
2023-04-21T02:03:16.581Z,28
2023-04-21T02:04:23.478Z,29
2023-04-21T02:05:30.140Z,31
2023-04-21T02:06:36.921Z,30
2023-04-21T02:07:43.751Z,29
2023-04-21T02:08:50.589Z,29
2023-04-21T02:09:57.412Z,30
2023-04-21T02:11:04.391Z,33
2023-04-21T02:12:11.233Z,30
2023-04-21T02:13:18.013Z,29
2023-04-21T02:14:24.830Z,27
2023-04-21T02:15:31.729Z,28
2023-04-21T02:16:38.501Z,28
2023-04-21T02:17:45.466Z,29
2023-04-21T02:18:52.312Z,31
2023-04-21T02:19:59.242Z,34
2023-04-21T02:21:06.157Z,32
2023-04-21T02:22:12.996Z,33
2023-04-21T02:23:19.931Z,31
2023-04-21T02:24:26.761Z,31
2023-04-21T02:25:33.545Z,32
2023-04-21T02:26:40.356Z,31
2023-04-21T02:27:47.151Z,33
2023-04-21T02:28:54.001Z,28
2023-04-21T02:30:00.864Z,29
2023-04-21T02:31:08.173Z,29
2023-04-21T02:32:24.740Z,28
2023-04-21T02:33:21.952Z,27
2023-04-21T02:34:28.716Z,27
2023-04-21T02:35:35.549Z,26
2023-04-21T02:36:42.510Z,27
2023-04-21T02:37:49.360Z,27
2023-04-21T02:38:56.222Z,27
2023-04-21T02:40:03.053Z,27
2023-04-21T02:41:10.207Z,26
2023-04-21T02:42:17.041Z,26
2023-04-21T02:43:23.912Z,26
2023-04-21T02:44:30.858Z,27
2023-04-21T02:45:37.693Z,27
2023-04-21T02:46:44.549Z,26
2023-04-21T02:47:51.466Z,28
2023-04-21T02:48:58.362Z,27
2023-04-21T02:50:05.219Z,28
2023-04-21T02:51:13.181Z,27
2023-04-21T02:52:20.040Z,27
2023-04-21T02:53:26.899Z,27
2023-04-21T02:54:33.711Z,28
2023-04-21T02:55:40.566Z,28
2023-04-21T02:56:47.511Z,30
2023-04-21T02:57:54.429Z,34
2023-04-21T02:59:01.266Z,34
2023-04-21T03:00:08.090Z,33
2023-04-21T03:01:17.915Z,34
2023-04-21T03:02:24.944Z,35
2023-04-21T03:03:31.866Z,32
2023-04-21T03:04:38.592Z,32
2023-04-21T03:05:45.371Z,40
2023-04-21T03:06:52.237Z,39
2023-04-21T03:07:59.056Z,35
2023-04-21T03:09:05.864Z,35
2023-04-21T03:10:12.731Z,33
2023-04-21T03:11:19.589Z,37
2023-04-21T03:12:26.363Z,38
2023-04-21T03:13:33.167Z,38
2023-04-21T03:14:39.958Z,44
2023-04-21T03:15:46.731Z,42
2023-04-21T03:16:53.669Z,42
2023-04-21T03:18:00.458Z,43
2023-04-21T03:19:07.324Z,49
2023-04-21T03:20:14.149Z,44
2023-04-21T03:21:21.028Z,43
2023-04-21T03:22:27.921Z,45
2023-04-21T03:23:34.806Z,48
2023-04-21T03:24:41.642Z,49
2023-04-21T03:25:48.445Z,45
2023-04-21T03:26:55.339Z,44
2023-04-21T03:28:02.235Z,44
2023-04-21T03:29:09.080Z,44
2023-04-21T03:30:15.942Z,48
2023-04-21T03:31:22.877Z,48
2023-04-21T03:32:29.817Z,47
2023-04-21T03:33:36.575Z,43
2023-04-21T03:34:43.389Z,47
2023-04-21T03:35:50.265Z,45
2023-04-21T03:36:57.075Z,46
2023-04-21T03:38:04.247Z,47
2023-04-21T03:39:19.658Z,49
2023-04-21T03:40:17.600Z,47
2023-04-21T03:41:24.601Z,43
2023-04-21T03:42:31.424Z,46
2023-04-21T03:43:38.222Z,48
2023-04-21T03:44:45.079Z,50
2023-04-21T03:45:51.913Z,56
2023-04-21T03:46:59.633Z,56
2023-04-21T03:48:06.519Z,61
2023-04-21T03:49:13.391Z,62
2023-04-21T03:50:20.206Z,60
2023-04-21T03:51:27.090Z,60
2023-04-21T03:52:33.862Z,56
2023-04-21T03:53:40.788Z,62
2023-04-21T03:54:47.604Z,58
2023-04-21T03:55:54.421Z,63
2023-04-21T03:57:01.243Z,59
2023-04-21T03:58:08.068Z,58
2023-04-21T03:59:14.843Z,59
2023-04-21T04:00:21.620Z,59
2023-04-21T04:01:28.658Z,63
2023-04-21T04:02:35.610Z,60
2023-04-21T04:03:42.477Z,61
2023-04-21T04:04:49.402Z,62
2023-04-21T04:05:56.007Z,58
2023-04-21T04:07:02.871Z,56
2023-04-21T04:08:09.722Z,58
2023-04-21T04:09:16.550Z,59
2023-04-21T04:10:23.400Z,56
2023-04-21T04:11:30.346Z,53
2023-04-21T04:12:37.189Z,55
2023-04-21T04:13:44.013Z,52
2023-04-21T04:14:50.887Z,55
2023-04-21T04:15:57.822Z,50
2023-04-21T04:17:04.656Z,53
2023-04-21T04:18:11.542Z,55
2023-04-21T04:19:18.539Z,52
2023-04-21T04:20:25.135Z,53
2023-04-21T04:21:32.006Z,53
2023-04-21T04:22:38.976Z,50
2023-04-21T04:23:45.743Z,50
2023-04-21T04:24:55.256Z,53
2023-04-21T04:26:02.051Z,51
2023-04-21T04:27:08.976Z,53
2023-04-21T04:28:18.872Z,52
2023-04-21T04:29:25.692Z,55
2023-04-21T04:30:32.544Z,58
2023-04-21T04:31:39.352Z,59
2023-04-21T04:32:46.354Z,63
2023-04-21T04:33:55.102Z,59
2023-04-21T04:34:59.964Z,64
2023-04-21T04:36:06.912Z,71
2023-04-21T04:37:13.801Z,66
2023-04-21T04:38:20.759Z,83
2023-04-21T04:39:27.694Z,75
2023-04-21T04:40:34.694Z,73
2023-04-21T04:41:41.817Z,71
2023-04-21T04:42:48.852Z,74
2023-04-21T04:43:55.784Z,73
2023-04-21T04:45:02.695Z,72
2023-04-21T04:46:09.730Z,72
2023-04-21T04:47:16.495Z,70
2023-04-21T04:48:23.373Z,72
2023-04-21T04:49:30.169Z,70
2023-04-21T04:50:36.979Z,71
2023-04-21T04:51:43.771Z,70
2023-04-21T04:52:50.536Z,71
2023-04-21T04:53:57.359Z,72
2023-04-21T04:55:04.147Z,73
2023-04-21T04:56:10.915Z,66
2023-04-21T04:57:17.758Z,65
2023-04-21T04:58:24.614Z,69
2023-04-21T04:59:31.931Z,65
2023-04-21T05:00:38.807Z,79
2023-04-21T05:01:45.625Z,78
2023-04-21T05:02:52.510Z,83
2023-04-21T05:03:59.357Z,82
2023-04-21T05:05:06.154Z,83
2023-04-21T05:06:13.076Z,75
2023-04-21T05:07:20.054Z,73
2023-04-21T05:08:27.029Z,69
2023-04-21T05:09:34.127Z,57
2023-04-21T05:10:41.190Z,52
2023-04-21T05:11:48.136Z,51
2023-04-21T05:12:54.946Z,51
2023-04-21T05:14:01.730Z,51
2023-04-21T05:15:08.568Z,47
2023-04-21T05:16:15.482Z,44
2023-04-21T05:17:22.277Z,43
2023-04-21T05:18:29.083Z,41
2023-04-21T05:19:35.934Z,41
2023-04-21T05:20:42.726Z,42
2023-04-21T05:21:49.543Z,40
2023-04-21T05:22:56.404Z,41
2023-04-21T05:24:03.186Z,41
2023-04-21T05:25:10.007Z,42
2023-04-21T05:26:16.866Z,41
2023-04-21T05:27:23.709Z,45
2023-04-21T05:28:30.526Z,46
2023-04-21T05:29:37.452Z,46
2023-04-21T05:30:44.315Z,47
2023-04-21T05:31:51.167Z,50
2023-04-21T05:32:58.064Z,48
2023-04-21T05:34:04.911Z,46
2023-04-21T05:35:11.761Z,46
2023-04-21T05:36:18.562Z,46
2023-04-21T05:37:25.422Z,45
2023-04-21T05:38:32.267Z,45
2023-04-21T05:39:39.098Z,49
2023-04-21T05:40:45.950Z,47
2023-04-21T05:41:58.605Z,46
2023-04-21T05:43:06.699Z,46
2023-04-21T05:44:13.506Z,45
2023-04-21T05:45:20.290Z,46
2023-04-21T05:46:27.261Z,47
2023-04-21T05:47:34.008Z,46
2023-04-21T05:48:40.809Z,42
2023-04-21T05:49:47.629Z,41
2023-04-21T05:50:54.411Z,41
2023-04-21T05:52:01.240Z,40
2023-04-21T05:53:08.006Z,42
2023-04-21T05:54:14.846Z,38
2023-04-21T05:55:21.673Z,39
2023-04-21T05:56:28.538Z,40
2023-04-21T05:57:35.372Z,39
2023-04-21T05:58:42.190Z,38
2023-04-21T05:59:49.019Z,36
2023-04-21T06:00:55.841Z,37
2023-04-21T06:02:02.764Z,38
2023-04-21T06:03:09.737Z,35
2023-04-21T06:04:16.555Z,35
2023-04-21T06:05:23.124Z,35
2023-04-21T06:06:30.416Z,33
2023-04-21T06:07:37.239Z,34
2023-04-21T06:08:44.040Z,30
2023-04-21T06:09:51.746Z,24
2023-04-21T06:10:58.568Z,21
2023-04-21T06:12:05.424Z,21
2023-04-21T06:13:12.249Z,21
2023-04-21T06:14:19.329Z,20
2023-04-21T06:15:25.894Z,20
2023-04-21T06:16:32.838Z,21
2023-04-21T06:17:39.555Z,20
2023-04-21T06:18:46.366Z,22
2023-04-21T06:19:53.294Z,21
2023-04-21T06:21:00.080Z,23
2023-04-21T06:22:06.991Z,22
2023-04-21T06:23:13.780Z,22
2023-04-21T06:24:20.797Z,23
2023-04-21T06:25:30.492Z,22
2023-04-21T06:26:37.270Z,25
2023-04-21T06:27:44.096Z,26
2023-04-21T06:28:50.860Z,24
2023-04-21T06:29:57.578Z,24
2023-04-21T06:31:06.179Z,18
2023-04-21T06:32:11.266Z,19
2023-04-21T06:33:18.009Z,19
2023-04-21T06:34:24.816Z,20
2023-04-21T06:35:31.678Z,22
2023-04-21T06:36:38.569Z,22
2023-04-21T06:37:45.321Z,21
2023-04-21T06:38:52.898Z,21
2023-04-21T06:39:59.803Z,21
2023-04-21T06:41:06.709Z,22
2023-04-21T06:42:13.518Z,20
2023-04-21T06:43:20.331Z,22
2023-04-21T06:44:27.161Z,21
2023-04-21T06:45:34.132Z,21
2023-04-21T06:46:41.031Z,21
2023-04-21T06:47:47.834Z,21
2023-04-21T06:48:54.655Z,20
2023-04-21T06:50:01.492Z,21
2023-04-21T06:51:08.735Z,21
2023-04-21T06:52:16.357Z,21
2023-04-21T06:53:22.516Z,18
2023-04-21T06:54:29.394Z,17
2023-04-21T06:55:36.286Z,19
2023-04-21T06:56:43.141Z,19
2023-04-21T06:57:49.920Z,21
2023-04-21T06:58:56.751Z,20
2023-04-21T07:00:03.598Z,21
2023-04-21T07:01:10.840Z,20
2023-04-21T07:02:17.626Z,19
2023-04-21T07:03:24.469Z,20
2023-04-21T07:04:32.285Z,18
2023-04-21T07:05:38.933Z,18
2023-04-21T07:06:46.619Z,18
2023-04-21T07:07:53.413Z,17
2023-04-21T07:09:00.240Z,17
2023-04-21T07:10:07.094Z,18
2023-04-21T07:11:13.958Z,16
2023-04-21T07:12:21.572Z,16
2023-04-21T07:13:28.462Z,17
2023-04-21T07:14:35.324Z,16
2023-04-21T07:15:42.093Z,16
2023-04-21T07:16:49.791Z,17
2023-04-21T07:17:56.682Z,16
2023-04-21T07:19:03.407Z,15
2023-04-21T07:20:11.896Z,16
2023-04-21T07:21:18.754Z,16
2023-04-21T07:22:25.699Z,16
2023-04-21T07:23:32.460Z,15
2023-04-21T07:24:39.307Z,16
2023-04-21T07:25:46.177Z,15
2023-04-21T07:26:53.025Z,14
2023-04-21T07:27:59.818Z,13
2023-04-21T07:29:06.693Z,15
2023-04-21T07:30:14.372Z,15
2023-04-21T07:31:21.276Z,15
2023-04-21T07:32:28.182Z,14
2023-04-21T07:33:35.056Z,15
2023-04-21T07:34:41.884Z,15
2023-04-21T07:35:48.731Z,14
2023-04-21T07:36:55.661Z,14
2023-04-21T07:38:02.514Z,14
2023-04-21T07:39:09.450Z,14
2023-04-21T07:40:16.423Z,13
2023-04-21T07:41:23.294Z,14
2023-04-21T07:42:30.173Z,14
2023-04-21T07:43:37.954Z,13
2023-04-21T07:44:45.129Z,12
2023-04-21T07:45:51.979Z,12
2023-04-21T07:46:58.777Z,12
2023-04-21T07:48:05.594Z,11
2023-04-21T07:49:12.457Z,13
2023-04-21T07:50:19.427Z,13
2023-04-21T07:51:26.321Z,12
2023-04-21T07:52:33.161Z,12
2023-04-21T07:53:39.999Z,12
2023-04-21T07:54:46.814Z,12
2023-04-21T07:55:53.659Z,13
2023-04-21T07:57:00.561Z,13
2023-04-21T07:58:07.425Z,13
2023-04-21T07:59:14.282Z,13
2023-04-21T08:00:21.172Z,13
2023-04-21T08:01:28.037Z,12
2023-04-21T08:02:34.966Z,12
2023-04-21T08:03:41.907Z,12
2023-04-21T08:04:48.889Z,12
2023-04-21T08:05:55.887Z,11
2023-04-21T08:07:02.930Z,13
2023-04-21T08:08:09.405Z,12
2023-04-21T08:09:16.260Z,11
2023-04-21T08:10:23.166Z,12
2023-04-21T08:11:30.032Z,12
2023-04-21T08:12:36.920Z,12
2023-04-21T08:13:43.752Z,11
2023-04-21T08:14:50.532Z,12
2023-04-21T08:15:57.525Z,12
2023-04-21T08:17:04.427Z,11
2023-04-21T08:18:11.260Z,11
2023-04-21T08:19:18.362Z,11
2023-04-21T08:20:24.997Z,11
2023-04-21T08:21:32.004Z,11
2023-04-21T08:22:38.690Z,11
2023-04-21T08:23:45.566Z,11
2023-04-21T08:24:52.438Z,10
2023-04-21T08:25:59.372Z,10
2023-04-21T08:27:06.241Z,10
2023-04-21T08:28:14.001Z,10
2023-04-21T08:29:20.921Z,9
2023-04-21T08:30:27.744Z,9
2023-04-21T08:31:34.676Z,9
2023-04-21T08:32:41.468Z,9
2023-04-21T08:33:58.338Z,8
2023-04-21T08:34:55.229Z,8
2023-04-21T08:36:05.738Z,8
2023-04-21T08:37:09.198Z,8
2023-04-21T08:38:16.859Z,7
2023-04-21T08:39:23.713Z,8
2023-04-21T08:40:30.845Z,8
2023-04-21T08:41:37.743Z,8
2023-04-21T08:42:44.661Z,8
2023-04-21T08:43:51.464Z,8
2023-04-21T08:44:58.369Z,8
2023-04-21T08:46:05.214Z,9
2023-04-21T08:47:12.094Z,8
2023-04-21T08:48:18.975Z,8
2023-04-21T08:49:25.750Z,8
2023-04-21T08:50:32.625Z,7
2023-04-21T08:51:39.521Z,7
2023-04-21T08:52:46.373Z,6
2023-04-21T08:53:54.093Z,7
2023-04-21T08:55:01.864Z,7
2023-04-21T08:56:11.053Z,7
2023-04-21T08:57:16.356Z,7
2023-04-21T08:58:23.379Z,7
2023-04-21T08:59:30.250Z,6
2023-04-21T09:00:38.080Z,6
2023-04-21T09:01:44.954Z,6
2023-04-21T09:03:02.724Z,6
2023-04-21T09:04:09.194Z,6
2023-04-21T09:05:18.968Z,6
2023-04-21T09:06:25.631Z,7
2023-04-21T09:07:32.501Z,6
2023-04-21T09:08:39.323Z,6
2023-04-21T09:09:46.174Z,6
2023-04-21T09:10:55.890Z,6
2023-04-21T09:12:02.826Z,6
2023-04-21T09:13:09.670Z,6
2023-04-21T09:14:16.614Z,6
2023-04-21T09:15:23.428Z,6
2023-04-21T09:16:30.276Z,6
2023-04-21T09:17:37.334Z,6
2023-04-21T09:18:44.249Z,6
2023-04-21T09:19:51.074Z,6
2023-04-21T09:20:58.779Z,5
2023-04-21T09:22:10.835Z,5
2023-04-21T09:23:20.221Z,6
2023-04-21T09:24:27.100Z,6
2023-04-21T09:25:34.033Z,6
2023-04-21T09:26:43.436Z,6
2023-04-21T09:27:56.431Z,5
2023-04-21T09:29:03.310Z,5
2023-04-21T09:30:10.255Z,5
2023-04-21T09:31:17.335Z,5
2023-04-21T09:32:24.036Z,5
2023-04-21T09:33:34.481Z,5
2023-04-21T09:34:37.882Z,5
2023-04-21T09:35:44.847Z,5
2023-04-21T09:36:51.618Z,5
2023-04-21T09:38:03.697Z,5
2023-04-21T09:39:30.416Z,6
2023-04-21T09:40:20.348Z,5
2023-04-21T09:41:28.078Z,6
2023-04-21T09:42:38.070Z,5
2023-04-21T09:43:41.838Z,6
2023-04-21T09:44:53.773Z,6
2023-04-21T09:45:56.538Z,5
2023-04-21T09:47:03.437Z,5
2023-04-21T09:48:10.342Z,5
2023-04-21T09:49:17.220Z,5
2023-04-21T09:50:44.657Z,6
2023-04-21T09:51:42.641Z,6
2023-04-21T09:52:37.773Z,5
2023-04-21T09:53:44.660Z,5
2023-04-21T09:54:51.518Z,5
2023-04-21T09:56:02.102Z,5
2023-04-21T09:57:10.159Z,5
2023-04-21T09:58:17.060Z,5
2023-04-21T09:59:23.954Z,5
2023-04-21T10:00:33.338Z,5
2023-04-21T10:01:40.299Z,7
2023-04-21T10:02:47.261Z,7
2023-04-21T10:03:54.050Z,7
2023-04-21T10:05:00.859Z,8
2023-04-21T10:06:07.709Z,7
2023-04-21T10:07:14.524Z,7
2023-04-21T10:08:21.410Z,7
2023-04-21T10:09:28.354Z,7
2023-04-21T10:10:38.403Z,6
2023-04-21T10:11:45.342Z,7
2023-04-21T10:12:53.082Z,7
2023-04-21T10:14:00.383Z,6
2023-04-21T10:15:07.988Z,6
2023-04-21T10:16:25.230Z,6
2023-04-21T10:17:32.194Z,7
2023-04-21T10:18:42.017Z,6
2023-04-21T10:19:48.859Z,6
2023-04-21T10:20:55.893Z,6
2023-04-21T10:22:07.571Z,7
2023-04-21T10:23:14.506Z,6
2023-04-21T10:24:29.623Z,6
2023-04-21T10:25:36.430Z,6
2023-04-21T10:26:43.224Z,6
2023-04-21T10:27:50.101Z,6
2023-04-21T10:28:57.085Z,6
2023-04-21T10:30:03.927Z,6
2023-04-21T10:31:21.233Z,6
2023-04-21T10:32:33.330Z,6
2023-04-21T10:33:42.947Z,6
2023-04-21T10:35:00.186Z,6
2023-04-21T10:36:07.200Z,6
2023-04-21T10:37:14.074Z,7
2023-04-21T10:38:21.027Z,6
2023-04-21T10:39:41.063Z,6
2023-04-21T10:40:48.002Z,6
2023-04-21T10:41:54.946Z,6
2023-04-21T10:43:01.804Z,6
2023-04-21T10:44:08.626Z,6
2023-04-21T10:45:15.587Z,6
2023-04-21T10:46:22.422Z,6
2023-04-21T10:47:37.052Z,6
2023-04-21T10:48:49.680Z,7
2023-04-21T10:49:56.504Z,7
2023-04-21T10:51:04.266Z,7
2023-04-21T10:52:11.116Z,7
2023-04-21T10:53:17.916Z,7
2023-04-21T10:54:24.769Z,7
2023-04-21T10:55:41.982Z,7
2023-04-21T10:56:48.926Z,7
2023-04-21T10:57:58.554Z,7
2023-04-21T10:59:08.053Z,7
2023-04-21T11:00:15.059Z,7
2023-04-21T11:01:21.957Z,7
2023-04-21T11:02:28.857Z,8
2023-04-21T11:03:35.855Z,7
2023-04-21T11:04:42.729Z,7
2023-04-21T11:05:55.323Z,8
2023-04-21T11:07:02.197Z,7
2023-04-21T11:08:14.253Z,7
2023-04-21T11:09:21.156Z,7
2023-04-21T11:10:28.014Z,8
2023-04-21T11:11:45.231Z,8
2023-04-21T11:12:52.063Z,8
2023-04-21T11:13:58.995Z,7
2023-04-21T11:15:05.947Z,7
2023-04-21T11:16:12.895Z,7
2023-04-21T11:17:19.733Z,7
2023-04-21T11:18:26.570Z,7
2023-04-21T11:19:41.328Z,7
2023-04-21T11:20:48.133Z,7
2023-04-21T11:21:55.033Z,7
2023-04-21T11:23:01.870Z,7
2023-04-21T11:24:08.765Z,6
2023-04-21T11:25:15.619Z,6
2023-04-21T11:26:23.240Z,6
2023-04-21T11:27:32.893Z,6
2023-04-21T11:28:39.700Z,6
2023-04-21T11:29:46.548Z,6
2023-04-21T11:30:54.261Z,6
2023-04-21T11:32:02.020Z,6
2023-04-21T11:33:08.932Z,6
2023-04-21T11:34:16.464Z,6
2023-04-21T11:35:23.378Z,7
2023-04-21T11:36:30.193Z,6
2023-04-21T11:37:37.152Z,6
2023-04-21T11:38:43.947Z,6
2023-04-21T11:39:50.740Z,6
2023-04-21T11:41:03.752Z,6
2023-04-21T11:42:10.630Z,6
2023-04-21T11:43:18.292Z,6
2023-04-21T11:44:25.256Z,6
2023-04-21T11:45:40.969Z,6
2023-04-21T11:46:47.748Z,6
2023-04-21T11:47:54.719Z,6
2023-04-21T11:49:01.479Z,6
2023-04-21T11:50:10.981Z,6
2023-04-21T11:51:19.362Z,5
2023-04-21T11:52:24.730Z,5
2023-04-21T11:53:31.515Z,5
2023-04-21T11:54:38.257Z,5
2023-04-21T11:55:45.184Z,5
2023-04-21T11:56:52.085Z,5
2023-04-21T11:57:58.913Z,5
2023-04-21T11:59:05.692Z,5
2023-04-21T12:00:12.579Z,5
2023-04-21T12:01:19.777Z,5
2023-04-21T12:02:26.791Z,5
2023-04-21T12:03:33.879Z,5
2023-04-21T12:04:40.584Z,6
2023-04-21T12:05:47.380Z,5
2023-04-21T12:06:54.206Z,6
2023-04-21T12:08:01.124Z,5
2023-04-21T12:09:08.042Z,5
2023-04-21T12:10:20.105Z,6
2023-04-21T12:11:27.003Z,6
2023-04-21T12:12:35.795Z,6
2023-04-21T12:13:40.942Z,6
2023-04-21T12:14:47.898Z,6
2023-04-21T12:15:54.778Z,6
2023-04-21T12:17:01.635Z,5
2023-04-21T12:18:09.362Z,6
2023-04-21T12:19:16.960Z,5
2023-04-21T12:20:34.830Z,5
2023-04-21T12:21:41.143Z,5
2023-04-21T12:22:47.979Z,6
2023-04-21T12:23:54.806Z,6
2023-04-21T12:25:01.664Z,5
2023-04-21T12:26:08.808Z,6
2023-04-21T12:27:21.792Z,5
2023-04-21T12:28:28.899Z,5
2023-04-21T12:29:36.852Z,5
2023-04-21T12:30:44.016Z,5
2023-04-21T12:31:50.785Z,5
2023-04-21T12:32:57.687Z,5
2023-04-21T12:34:04.602Z,5
2023-04-21T12:35:11.335Z,5
2023-04-21T12:36:18.238Z,5
2023-04-21T12:37:25.012Z,5
2023-04-21T12:38:31.887Z,5
2023-04-21T12:39:38.746Z,5
2023-04-21T12:40:45.726Z,6
2023-04-21T12:41:52.580Z,5
2023-04-21T12:42:59.422Z,6
2023-04-21T12:44:06.316Z,5
2023-04-21T12:45:13.153Z,5
2023-04-21T12:46:20.021Z,5
2023-04-21T12:47:26.847Z,6
2023-04-21T12:48:33.588Z,5
2023-04-21T12:49:40.442Z,5
2023-04-21T12:50:47.514Z,5
2023-04-21T12:51:54.396Z,5
2023-04-21T12:53:02.023Z,5
2023-04-21T12:54:08.894Z,5
2023-04-21T12:55:15.712Z,5
2023-04-21T12:56:22.541Z,5
2023-04-21T12:57:29.348Z,6
2023-04-21T12:58:36.165Z,5
2023-04-21T12:59:44.817Z,6
2023-04-21T13:00:50.630Z,5
2023-04-21T13:01:57.401Z,6
2023-04-21T13:03:04.353Z,5
2023-04-21T13:04:11.309Z,6
2023-04-21T13:05:17.904Z,5
2023-04-21T13:06:27.269Z,5
2023-04-21T13:07:34.223Z,6
2023-04-21T13:08:41.959Z,5
2023-04-21T13:09:48.803Z,5
2023-04-21T13:10:55.661Z,5
2023-04-21T13:12:03.291Z,5
2023-04-21T13:13:10.042Z,5
2023-04-21T13:14:17.191Z,5
2023-04-21T13:15:24.086Z,5
2023-04-21T13:16:31.033Z,5
2023-04-21T13:17:37.859Z,5
2023-04-21T13:18:44.646Z,5
2023-04-21T13:19:51.565Z,5
2023-04-21T13:20:58.262Z,5
2023-04-21T13:22:05.048Z,5
2023-04-21T13:23:11.853Z,6
2023-04-21T13:24:18.640Z,5
2023-04-21T13:25:25.522Z,6
2023-04-21T13:26:32.286Z,6
2023-04-21T13:27:39.298Z,5
2023-04-21T13:28:46.130Z,6
2023-04-21T13:29:52.907Z,5
2023-04-21T13:30:59.796Z,5
2023-04-21T13:32:06.712Z,5
2023-04-21T13:33:13.496Z,5
2023-04-21T13:34:20.253Z,5
2023-04-21T13:35:27.329Z,5
2023-04-21T13:36:34.216Z,6
2023-04-21T13:37:41.031Z,5
2023-04-21T13:38:47.831Z,5
2023-04-21T13:39:54.634Z,5
2023-04-21T13:41:01.847Z,5
2023-04-21T13:42:08.686Z,6
2023-04-21T13:43:15.637Z,5
2023-04-21T13:44:22.493Z,5
2023-04-21T13:45:30.228Z,6
2023-04-21T13:46:37.229Z,5
2023-04-21T13:47:44.112Z,5
2023-04-21T13:48:50.847Z,5
2023-04-21T13:49:57.617Z,5
2023-04-21T13:51:04.815Z,5
2023-04-21T13:52:11.824Z,5
2023-04-21T13:53:21.239Z,5
2023-04-21T13:54:27.796Z,5
2023-04-21T13:55:33.939Z,6
2023-04-21T13:56:40.819Z,5
2023-04-21T13:57:47.702Z,5
2023-04-21T13:58:54.516Z,6
2023-04-21T14:00:01.414Z,5
2023-04-21T14:01:08.552Z,5
2023-04-21T14:02:15.544Z,5
2023-04-21T14:03:22.557Z,5
2023-04-21T14:04:29.483Z,5
2023-04-21T14:05:36.104Z,5
2023-04-21T14:06:42.859Z,6
2023-04-21T14:07:49.721Z,5
2023-04-21T14:08:56.706Z,5
2023-04-21T14:10:03.544Z,5
2023-04-21T14:11:10.657Z,5
2023-04-21T14:12:17.589Z,5
2023-04-21T14:13:34.536Z,6
2023-04-21T14:14:38.517Z,5
2023-04-21T14:15:38.204Z,5
2023-04-21T14:16:45.104Z,6
2023-04-21T14:17:52.012Z,5
2023-04-21T14:18:58.871Z,6
2023-04-21T14:20:05.761Z,5
2023-04-21T14:21:12.935Z,5
2023-04-21T14:22:19.799Z,5
2023-04-21T14:23:26.654Z,5
2023-04-21T14:24:33.460Z,5
2023-04-21T14:25:40.345Z,5
2023-04-21T14:26:47.193Z,5
2023-04-21T14:27:53.966Z,5
2023-04-21T14:29:00.777Z,5
2023-04-21T14:30:07.602Z,5
2023-04-21T14:31:14.952Z,5
2023-04-21T14:32:22.088Z,5
2023-04-21T14:33:28.632Z,5
2023-04-21T14:34:35.439Z,5
2023-04-21T14:35:42.238Z,5
2023-04-21T14:36:49.042Z,5
2023-04-21T14:37:55.883Z,5
2023-04-21T14:39:02.749Z,5
2023-04-21T14:40:09.660Z,5
2023-04-21T14:41:16.401Z,5
2023-04-21T14:42:23.749Z,5
2023-04-21T14:43:30.467Z,5
2023-04-21T14:44:37.352Z,5
2023-04-21T14:45:44.242Z,5
2023-04-21T14:47:01.407Z,5
2023-04-21T14:47:57.856Z,5
2023-04-21T14:49:04.700Z,5
2023-04-21T14:50:11.573Z,5
2023-04-21T14:51:18.384Z,5
2023-04-21T14:52:25.514Z,5
2023-04-21T14:53:32.281Z,4
2023-04-21T14:54:39.058Z,5
2023-04-21T14:55:45.889Z,4
2023-04-21T14:56:58.203Z,5
2023-04-21T14:57:59.502Z,5
2023-04-21T14:59:06.290Z,5
2023-04-21T15:00:13.061Z,5
2023-04-21T15:01:20.250Z,5
2023-04-21T15:02:27.186Z,5
2023-04-21T15:03:33.935Z,5
2023-04-21T15:04:40.784Z,4
2023-04-21T15:05:47.660Z,5
2023-04-21T15:06:54.433Z,5
2023-04-21T15:08:01.244Z,5
2023-04-21T15:09:08.126Z,5
2023-04-21T15:10:14.988Z,5
2023-04-21T15:11:21.867Z,5
2023-04-21T15:12:28.649Z,5
2023-04-21T15:13:35.507Z,5
2023-04-21T15:14:42.261Z,5
2023-04-21T15:15:49.403Z,5
2023-04-21T15:16:56.287Z,4
2023-04-21T15:18:03.059Z,5
2023-04-21T15:19:09.850Z,5
2023-04-21T15:20:16.662Z,5
2023-04-21T15:21:24.357Z,5
2023-04-21T15:22:31.922Z,5
2023-04-21T15:23:38.765Z,5
2023-04-21T15:24:45.766Z,4
2023-04-21T15:25:52.584Z,5
2023-04-21T15:26:59.399Z,5
2023-04-21T15:28:06.287Z,5
2023-04-21T15:29:13.049Z,5
2023-04-21T15:30:19.905Z,4
2023-04-21T15:31:26.753Z,5
2023-04-21T15:32:33.552Z,5
2023-04-21T15:33:40.309Z,5
2023-04-21T15:34:47.132Z,5
2023-04-21T15:35:53.928Z,5
2023-04-21T15:37:00.696Z,5
2023-04-21T15:38:07.498Z,5
2023-04-21T15:39:14.421Z,5
2023-04-21T15:40:21.281Z,5
2023-04-21T15:41:28.141Z,4
2023-04-21T15:42:35.050Z,5
2023-04-21T15:43:41.956Z,5
2023-04-21T15:44:48.878Z,5
2023-04-21T15:45:55.891Z,5
2023-04-21T15:47:02.906Z,5
2023-04-21T15:48:09.518Z,5
2023-04-21T15:49:17.168Z,5
2023-04-21T15:50:24.521Z,5
2023-04-21T15:51:32.303Z,5
2023-04-21T15:52:39.486Z,4
2023-04-21T15:53:46.343Z,5
2023-04-21T15:54:53.134Z,4
2023-04-21T15:55:59.951Z,5
2023-04-21T15:57:06.859Z,5
2023-04-21T15:58:13.841Z,5
2023-04-21T15:59:21.014Z,5
2023-04-21T16:00:27.426Z,5
2023-04-21T16:01:34.248Z,5
2023-04-21T16:02:41.177Z,5
2023-04-21T16:03:48.092Z,5
2023-04-21T16:04:55.858Z,5
2023-04-21T16:06:02.688Z,5
2023-04-21T16:07:09.247Z,5
2023-04-21T16:08:16.136Z,5
2023-04-21T16:09:23.027Z,5
2023-04-21T16:10:30.673Z,5
2023-04-21T16:11:37.553Z,5
2023-04-21T16:12:44.329Z,5
2023-04-21T16:13:51.154Z,5
2023-04-21T16:15:03.880Z,5